Time;durP1;ratioP1;P1;durP2;ratioP2;P2;SDS_P1;SDS_P2;PMS_P1;PMS_P2;Temp;Humidity;BMP_temperature;BMP_pressure;BME280_temperature;BME280_humidity;BME280_pressure;Samples;Min_cycle;Max_cycle;Signal;HPM_P1;HPM_P2
2022/05/18 00:02:09;;;;;;;16.62;6.15;;;;;;;9.01;48.15;99302.27;1682426;82;21050;-66
2022/05/18 00:04:36;;;;;;;10.93;5.42;;;;;;;9.05;48.29;99303.01;1671489;84;22219;-67
2022/05/18 00:07:02;;;;;;;11.15;5.20;;;;;;;9.05;48.29;99304.38;1672755;84;21149;-66
2022/05/18 00:09:32;;;;;;;8.23;3.25;;;;;;;9.00;48.56;99299.28;1675606;84;21523;-66
2022/05/18 00:11:58;;;;;;;8.13;3.60;;;;;;;8.92;48.69;99310.22;1669656;83;21244;-66
2022/05/18 00:14:25;;;;;;;5.42;2.00;;;;;;;8.86;48.77;99305.41;1682086;84;21084;-66
2022/05/18 00:16:53;;;;;;;3.70;1.77;;;;;;;8.80;48.77;99308.05;1681450;83;21167;-65
2022/05/18 00:19:19;;;;;;;3.37;1.87;;;;;;;8.67;48.89;99309.16;1660040;84;22233;-66
2022/05/18 00:21:46;;;;;;;4.28;1.80;;;;;;;8.64;49.17;99311.98;1675817;84;21071;-69
2022/05/18 00:24:13;;;;;;;3.65;1.42;;;;;;;8.57;49.23;99311.60;1675102;84;21568;-65
2022/05/18 00:26:41;;;;;;;6.15;2.37;;;;;;;8.53;49.63;99311.38;1673212;84;21047;-67
2022/05/18 00:29:09;;;;;;;7.40;2.30;;;;;;;8.54;49.75;99313.57;1652496;84;21575;-65
2022/05/18 00:31:36;;;;;;;11.80;2.87;;;;;;;8.45;49.96;99307.19;1673267;84;21029;-66
2022/05/18 00:34:04;;;;;;;6.50;2.83;;;;;;;8.37;50.20;99318.36;1672777;84;21129;-66
2022/05/18 00:36:31;;;;;;;10.78;3.22;;;;;;;8.36;50.55;99320.28;1680946;84;21028;-65
2022/05/18 00:38:57;;;;;;;11.95;4.33;;;;;;;8.35;50.83;99327.45;1673594;84;21120;-64
2022/05/18 00:41:24;;;;;;;24.67;7.92;;;;;;;8.29;51.01;99328.13;1670258;83;21174;-66
2022/05/18 00:43:51;;;;;;;20.40;8.43;;;;;;;8.25;51.16;99328.52;1661045;84;22126;-66
2022/05/18 00:46:17;;;;;;;24.63;11.43;;;;;;;8.25;51.52;99323.02;1681322;84;21586;-65
2022/05/18 00:48:44;;;;;;;39.27;14.20;;;;;;;8.26;51.54;99326.00;1675676;84;21077;-64
2022/05/18 00:51:18;;;;;;;57.23;23.40;;;;;;;8.24;52.07;99335.13;1612929;87;21063;-67
2022/05/18 00:53:47;;;;;;;;;;;;;;;8.18;52.01;99334.42;1614436;86;21271;-66
2022/05/18 00:56:22;;;;;;;78.02;30.55;;;;;;;8.17;52.10;99332.81;1612799;86;20188;-64
2022/05/18 00:59:07;;;;;;;75.55;32.00;;;;;;;8.13;52.27;99333.98;1618683;87;21105;-64
2022/05/18 01:01:35;;;;;;;67.62;29.50;;;;;;;8.12;52.44;99331.55;1610477;87;21252;-64
2022/05/18 01:04:04;;;;;;;69.45;27.60;;;;;;;8.10;52.87;99330.45;1674166;84;21183;-64
2022/05/18 01:07:04;;;;;;;65.12;26.95;;;;;;;8.08;53.25;99337.39;1676090;84;21103;-65
2022/05/18 01:09:37;;;;;;;63.92;26.48;;;;;;;8.03;53.46;99331.45;1667031;84;21086;-65
2022/05/18 01:12:06;;;;;;;86.87;29.82;;;;;;;8.00;53.60;99335.61;1662907;84;21815;-64
2022/05/18 01:14:39;;;;;;;70.83;28.50;;;;;;;7.97;53.65;99329.92;1662650;84;21138;-66
2022/05/18 01:17:06;;;;;;;59.80;23.37;;;;;;;8.00;53.70;99341.68;1669941;84;21106;-66
2022/05/18 01:19:45;;;;;;;57.55;21.45;;;;;;;7.97;53.79;99338.16;1656083;84;21116;-64
2022/05/18 01:22:50;;;;;;;36.80;15.13;;;;;;;7.88;54.16;99336.72;1666809;84;21042;-65
2022/05/18 01:25:54;;;;;;;33.25;11.43;;;;;;;7.85;54.64;99338.67;1665898;83;21026;-66
2022/05/18 01:28:24;;;;;;;44.42;12.78;;;;;;;7.73;54.72;99347.45;1678011;83;21014;-65
2022/05/18 01:30:50;;;;;;;19.45;8.08;;;;;;;7.60;55.15;99347.68;1677898;84;21129;-66
2022/05/18 01:33:18;;;;;;;15.93;6.70;;;;;;;7.52;55.26;99346.47;1671879;84;21476;-65
2022/05/18 01:35:47;;;;;;;19.92;5.92;;;;;;;7.51;55.44;99345.65;1668359;84;21081;-66
2022/05/18 01:38:14;;;;;;;16.90;6.55;;;;;;;7.45;55.52;99351.53;1665541;84;21155;-65
2022/05/18 01:40:57;;;;;;;17.27;6.55;;;;;;;7.41;55.79;99346.66;1665477;84;21108;-66
2022/05/18 01:43:36;;;;;;;26.07;8.05;;;;;;;7.35;55.92;99356.11;1672004;84;21041;-67
2022/05/18 01:46:07;;;;;;;15.15;7.08;;;;;;;7.30;56.23;99352.87;1634247;85;21888;-67
2022/05/18 01:48:38;;;;;;;25.30;8.38;;;;;;;7.25;56.75;99356.29;1664565;84;21086;-67
2022/05/18 01:51:07;;;;;;;23.60;8.93;;;;;;;7.15;57.27;99358.63;1673702;84;22537;-66
2022/05/18 01:53:34;;;;;;;17.80;8.28;;;;;;;7.11;57.65;99359.81;1675414;84;21621;-69
2022/05/18 01:56:02;;;;;;;26.85;9.90;;;;;;;7.07;58.07;99367.00;1665050;84;21103;-66
2022/05/18 01:58:28;;;;;;;32.65;11.43;;;;;;;7.02;58.33;99371.19;1626086;85;21201;-67
2022/05/18 02:00:55;;;;;;;32.67;10.82;;;;;;;6.92;58.96;99373.00;1677219;83;22201;-67
2022/05/18 02:03:23;;;;;;;25.65;11.22;;;;;;;6.85;59.24;99367.09;1656032;84;21591;-66
2022/05/18 02:05:52;;;;;;;32.73;11.60;;;;;;;6.84;59.75;99378.34;1659998;84;21563;-66
2022/05/18 02:08:22;;;;;;;29.82;11.18;;;;;;;6.79;60.04;99375.14;1670048;84;21165;-68
2022/05/18 02:10:50;;;;;;;37.75;12.55;;;;;;;6.75;60.41;99376.28;1682937;84;21285;-66
2022/05/18 02:13:17;;;;;;;34.15;12.95;;;;;;;6.65;60.92;99373.12;1680207;82;22570;-67
2022/05/18 02:15:45;;;;;;;34.40;13.50;;;;;;;6.61;61.25;99374.84;1668547;84;21797;-67
2022/05/18 02:18:11;;;;;;;34.92;14.53;;;;;;;6.62;61.54;99374.30;1681294;83;21623;-65
2022/05/18 02:20:39;;;;;;;37.38;13.98;;;;;;;6.68;61.70;99378.03;1661791;84;21659;-68
2022/05/18 02:23:07;;;;;;;28.65;11.40;;;;;;;6.66;61.77;99379.42;1658962;85;21083;-66
2022/05/18 02:25:33;;;;;;;34.08;14.13;;;;;;;6.67;62.16;99380.48;1660530;84;21570;-66
2022/05/18 02:28:00;;;;;;;42.80;14.93;;;;;;;6.62;62.27;99388.78;1657150;85;21052;-67
2022/05/18 02:30:26;;;;;;;41.05;14.50;;;;;;;6.56;62.48;99379.84;1662488;85;21095;-68
2022/05/18 02:32:54;;;;;;;40.05;14.60;;;;;;;6.56;62.78;99386.69;1659784;84;21064;-64
2022/05/18 02:35:20;;;;;;;38.35;16.48;;;;;;;6.60;62.84;99380.62;1674323;83;22175;-62
2022/05/18 02:37:48;;;;;;;36.98;15.30;;;;;;;6.57;62.80;99384.20;1660471;83;21095;-66
2022/05/18 02:40:14;;;;;;;45.50;15.43;;;;;;;6.61;63.07;99386.34;1676185;84;21152;-65
2022/05/18 02:42:40;;;;;;;42.62;14.60;;;;;;;6.59;63.05;99382.53;1669199;84;21086;-64
2022/05/18 02:45:09;;;;;;;35.75;13.88;;;;;;;6.50;63.26;99390.59;1664285;84;21086;-67
2022/05/18 02:47:36;;;;;;;40.03;14.75;;;;;;;6.45;63.52;99387.38;1669564;84;21156;-65
2022/05/18 02:50:04;;;;;;;40.98;15.15;;;;;;;6.40;63.72;99387.45;1670227;83;21062;-65
2022/05/18 02:52:32;;;;;;;33.85;13.43;;;;;;;6.36;64.07;99388.34;1662828;83;21117;-65
2022/05/18 02:57:45;;;;;;;29.12;12.45;;;;;;;6.21;64.67;99393.72;1668210;84;21755;-67
2022/05/18 03:00:13;;;;;;;24.12;9.03;;;;;;;6.19;65.16;99391.83;1671452;84;21750;-66
2022/05/18 03:02:40;;;;;;;21.95;8.80;;;;;;;6.18;65.20;99391.58;1675661;84;21069;-66
2022/05/18 03:05:08;;;;;;;26.37;7.58;;;;;;;6.14;65.61;99389.16;1661053;84;21071;-66
2022/05/18 03:07:34;;;;;;;18.70;7.55;;;;;;;6.08;65.67;99391.70;1667986;84;21008;-64
2022/05/18 03:10:01;;;;;;;20.62;6.33;;;;;;;6.08;66.10;99392.53;1674403;84;21061;-65
2022/05/18 03:12:29;;;;;;;16.95;6.15;;;;;;;6.05;66.15;99394.48;1668966;83;21003;-67
2022/05/18 03:14:56;;;;;;;20.25;6.47;;;;;;;6.01;66.45;99396.68;1653606;84;21179;-65
2022/05/18 03:17:23;;;;;;;13.35;5.58;;;;;;;6.00;66.75;99398.63;1668203;84;21164;-67
2022/05/18 03:19:50;;;;;;;21.02;5.53;;;;;;;6.03;66.88;99396.66;1683171;84;21017;-65
2022/05/18 03:25:02;;;;;;;21.25;7.42;;;;;;;6.02;67.36;99409.27;1668190;84;21788;-66
2022/05/18 03:27:29;;;;;;;21.00;7.78;;;;;;;6.00;67.73;99405.46;1641906;85;21085;-65
2022/05/18 03:29:57;;;;;;;20.97;7.95;;;;;;;5.95;67.85;99410.99;1678252;84;21081;-64
2022/05/18 03:32:23;;;;;;;29.45;9.58;;;;;;;5.94;68.33;99411.53;1669673;84;21583;-66
2022/05/18 03:34:50;;;;;;;19.48;9.00;;;;;;;5.98;68.42;99413.14;1659969;83;21751;-65
2022/05/18 03:37:17;;;;;;;22.10;10.43;;;;;;;6.03;68.45;99408.98;1663654;84;21243;-65
2022/05/18 03:39:45;;;;;;;24.52;10.65;;;;;;;6.01;68.52;99406.25;1667254;84;21118;-66
2022/05/18 03:42:12;;;;;;;24.92;9.48;;;;;;;6.04;68.79;99409.80;1672385;84;21023;-66
2022/05/18 03:44:40;;;;;;;29.30;10.80;;;;;;;6.01;68.84;99408.45;1663427;84;21121;-67
2022/05/18 03:47:07;;;;;;;23.77;10.23;;;;;;;6.03;69.02;99410.89;1680079;84;21537;-66
2022/05/18 03:49:34;;;;;;;32.80;12.13;;;;;;;6.04;69.24;99409.80;1668601;83;21166;-65
2022/05/18 03:52:00;;;;;;;25.77;11.12;;;;;;;6.09;69.14;99420.68;1675201;84;21071;-65
2022/05/18 03:54:27;;;;;;;28.95;12.50;;;;;;;6.12;69.35;99422.86;1666129;84;21604;-65
2022/05/18 03:56:53;;;;;;;30.60;12.68;;;;;;;6.14;69.47;99419.25;1670764;84;21081;-67
2022/05/18 03:59:20;;;;;;;43.78;14.43;;;;;;;6.15;69.35;99423.64;1663625;84;21669;-66
2022/05/18 04:01:46;;;;;;;44.18;14.30;;;;;;;6.15;69.43;99418.16;1681059;83;22070;-64
2022/05/18 04:04:14;;;;;;;42.33;15.30;;;;;;;6.20;69.53;99423.58;1674645;84;21082;-66
2022/05/18 04:06:40;;;;;;;37.50;16.50;;;;;;;6.27;69.63;99431.97;1663946;84;21033;-65
2022/05/18 04:09:09;;;;;;;46.05;16.97;;;;;;;6.33;69.80;99428.87;1666502;84;21052;-65
2022/05/18 04:11:35;;;;;;;40.40;16.42;;;;;;;6.46;69.93;99432.00;1678839;84;21117;-64
2022/05/18 04:14:02;;;;;;;41.25;17.45;;;;;;;6.62;69.70;99437.27;1678665;82;21369;-69
2022/05/18 04:16:29;;;;;;;46.60;18.55;;;;;;;6.69;69.51;99434.41;1658355;83;21542;-67
2022/05/18 04:18:55;;;;;;;45.73;18.50;;;;;;;6.79;69.33;99440.86;1672339;83;21040;-66
2022/05/18 04:21:22;;;;;;;44.23;18.10;;;;;;;6.82;69.04;99442.42;1667623;84;21140;-66
2022/05/18 04:23:49;;;;;;;43.65;18.00;;;;;;;6.76;69.07;99440.89;1674398;84;21153;-67
2022/05/18 04:26:17;;;;;;;47.30;18.00;;;;;;;6.76;69.28;99440.06;1655882;84;21839;-67
2022/05/18 04:28:43;;;;;;;45.03;17.73;;;;;;;6.87;69.60;99440.73;1662008;84;21099;-66
2022/05/18 04:31:11;;;;;;;50.35;19.35;;;;;;;6.97;69.54;99441.12;1669796;84;21536;-64
2022/05/18 04:33:39;;;;;;;44.33;18.20;;;;;;;7.03;69.40;99443.49;1682717;83;21077;-66
2022/05/18 04:36:05;;;;;;;36.75;16.35;;;;;;;7.07;69.24;99445.08;1678715;84;21082;-64
2022/05/18 04:38:33;;;;;;;43.17;18.80;;;;;;;7.08;69.00;99445.91;1680599;84;21602;-65
2022/05/18 04:41:00;;;;;;;34.58;14.90;;;;;;;7.11;69.27;99450.78;1683104;83;21804;-66
2022/05/18 04:43:27;;;;;;;31.48;15.25;;;;;;;7.22;69.25;99444.02;1662871;84;21606;-66
2022/05/18 04:45:55;;;;;;;38.30;16.32;;;;;;;7.24;69.25;99456.88;1645941;84;21045;-65
2022/05/18 04:48:22;;;;;;;36.33;16.40;;;;;;;7.22;69.06;99454.16;1658493;84;21136;-66
2022/05/18 04:50:49;;;;;;;37.20;15.20;;;;;;;7.19;69.32;99448.73;1653818;84;21569;-65
2022/05/18 04:53:16;;;;;;;31.85;13.80;;;;;;;7.14;69.21;99454.30;1656187;84;21097;-65
2022/05/18 04:55:44;;;;;;;32.40;13.32;;;;;;;7.19;69.54;99452.84;1670825;84;21092;-65
2022/05/18 04:58:10;;;;;;;30.65;12.65;;;;;;;7.20;69.45;99453.09;1666376;84;21022;-64
2022/05/18 05:00:37;;;;;;;30.15;12.70;;;;;;;7.23;69.62;99449.78;1676137;84;21097;-66
2022/05/18 05:03:05;;;;;;;34.63;13.70;;;;;;;7.25;69.84;99453.59;1685263;84;21134;-65
2022/05/18 05:05:31;;;;;;;33.90;13.45;;;;;;;7.30;69.90;99449.39;1652798;83;21030;-64
2022/05/18 05:07:58;;;;;;;29.05;13.43;;;;;;;7.36;69.79;99452.84;1668389;83;21088;-65
2022/05/18 05:10:24;;;;;;;32.93;13.22;;;;;;;7.38;69.90;99456.92;1615198;86;21033;-64
2022/05/18 05:12:54;;;;;;;37.38;13.98;;;;;;;7.43;70.22;99457.39;1664516;84;21089;-64
2022/05/18 05:15:22;;;;;;;41.33;14.33;;;;;;;7.49;69.83;99456.17;1659663;84;22465;-65
2022/05/18 05:17:50;;;;;;;30.60;13.10;;;;;;;7.50;69.68;99461.11;1651138;84;21206;-63
2022/05/18 05:20:16;;;;;;;33.65;13.45;;;;;;;7.51;69.62;99462.17;1666485;84;21147;-65
2022/05/18 05:22:42;;;;;;;25.77;11.03;;;;;;;7.49;69.29;99469.88;1663328;84;21181;-65
2022/05/18 05:25:09;;;;;;;28.50;10.95;;;;;;;7.39;69.58;99467.31;1671558;83;21569;-65
2022/05/18 05:27:37;;;;;;;27.98;11.00;;;;;;;7.38;70.10;99478.03;1681099;83;21149;-68
2022/05/18 05:30:05;;;;;;;24.65;10.00;;;;;;;7.39;70.08;99471.42;1668917;83;21149;-66
2022/05/18 05:32:32;;;;;;;11.35;5.72;;;;;;;7.38;70.33;99473.92;1663785;83;21021;-65
2022/05/18 05:34:59;;;;;;;12.90;6.10;;;;;;;7.34;70.33;99479.73;1639358;84;21073;-65
2022/05/18 05:37:26;;;;;;;18.12;5.90;;;;;;;7.25;70.44;99476.30;1644773;83;21009;-65
2022/05/18 05:39:55;;;;;;;15.48;6.17;;;;;;;7.26;70.68;99475.75;1659653;83;21587;-65
2022/05/18 05:42:23;;;;;;;15.68;6.03;;;;;;;7.33;70.88;99483.05;1637665;85;21017;-64
2022/05/18 05:44:50;;;;;;;15.30;7.12;;;;;;;7.41;70.68;99478.80;1651429;84;21653;-65
2022/05/18 05:47:17;;;;;;;16.70;7.90;;;;;;;7.46;70.66;99480.09;1658026;83;21109;-64
2022/05/18 05:49:46;;;;;;;25.68;10.63;;;;;;;7.47;70.58;99476.80;1657960;83;21077;-63
2022/05/18 05:52:13;;;;;;;24.98;10.45;;;;;;;7.43;70.50;99483.43;1655005;85;21820;-64
2022/05/18 05:54:40;;;;;;;23.55;8.88;;;;;;;7.41;70.81;99485.66;1656486;84;21094;-64
2022/05/18 05:57:07;;;;;;;32.67;11.75;;;;;;;7.44;70.94;99487.79;1662316;83;21588;-68
2022/05/18 05:59:36;;;;;;;22.73;9.65;;;;;;;7.52;71.48;99487.67;1651520;83;21137;-66
2022/05/18 06:02:06;;;;;;;23.30;8.50;;;;;;;7.57;71.29;99492.25;1664281;85;21125;-64
2022/05/18 06:04:34;;;;;;;21.48;9.75;;;;;;;7.61;71.41;99493.30;1647863;84;21137;-64
2022/05/18 06:07:02;;;;;;;18.65;9.08;;;;;;;7.62;71.49;99495.73;1657261;84;21066;-65
2022/05/18 06:09:28;;;;;;;19.10;7.62;;;;;;;7.66;71.42;99504.14;1664425;82;21009;-64
2022/05/18 06:11:55;;;;;;;18.52;7.42;;;;;;;7.71;71.23;99501.89;1647013;83;21071;-71
2022/05/18 06:14:22;;;;;;;13.30;7.03;;;;;;;7.70;71.37;99505.73;1663466;84;21507;-66
2022/05/18 06:16:49;;;;;;;20.48;7.90;;;;;;;7.67;71.40;99505.80;1656076;84;21836;-65
2022/05/18 06:19:16;;;;;;;21.33;7.22;;;;;;;7.59;71.42;99495.52;1665649;84;21155;-65
2022/05/18 06:21:47;;;;;;;23.57;8.85;;;;;;;7.51;71.85;99507.97;1664969;84;21549;-66
2022/05/18 06:24:15;;;;;;;20.50;8.28;;;;;;;7.53;72.30;99504.38;1660150;84;21111;-64
2022/05/18 06:26:44;;;;;;;18.57;6.97;;;;;;;7.55;72.28;99507.09;1662359;84;20982;-64
2022/05/18 06:29:10;;;;;;;14.73;6.60;;;;;;;7.54;72.65;99512.87;1662855;83;21164;-66
2022/05/18 06:31:37;;;;;;;14.07;5.58;;;;;;;7.52;72.90;99516.47;1664313;84;21153;-63
2022/05/18 06:34:04;;;;;;;12.70;4.65;;;;;;;7.56;72.98;99518.85;1654302;84;21105;-65
2022/05/18 06:36:31;;;;;;;9.73;4.70;;;;;;;7.62;73.03;99514.93;1661713;84;21123;-65
2022/05/18 06:38:58;;;;;;;8.98;3.27;;;;;;;7.68;73.64;99518.38;1663217;84;21669;-66
2022/05/18 06:41:24;;;;;;;6.83;2.87;;;;;;;7.80;73.65;99516.53;1653825;84;22140;-64
2022/05/18 06:43:58;;;;;;;8.70;3.42;;;;;;;7.76;71.87;99522.38;1663893;84;21017;-66
2022/05/18 06:46:25;;;;;;;8.28;3.75;;;;;;;7.68;72.64;99526.61;1653242;84;21585;-65
2022/05/18 06:48:54;;;;;;;9.90;3.30;;;;;;;7.71;73.36;99519.14;1658398;84;21125;-63
2022/05/18 06:51:24;;;;;;;5.22;3.22;;;;;;;7.82;73.56;99523.08;1672941;84;21180;-63
2022/05/18 06:53:56;;;;;;;5.35;2.50;;;;;;;7.85;73.68;99521.10;1665044;83;21757;-65
2022/05/18 06:56:28;;;;;;;4.28;2.20;;;;;;;7.96;73.50;99531.35;1647499;85;21094;-64
2022/05/18 06:58:54;;;;;;;5.20;2.33;;;;;;;8.01;73.43;99527.14;1663010;84;22272;-64
2022/05/18 07:01:21;;;;;;;4.25;2.33;;;;;;;8.04;72.99;99535.59;1657789;84;21639;-64
2022/05/18 07:03:48;;;;;;;7.72;1.60;;;;;;;7.98;73.00;99538.18;1661959;84;21135;-63
2022/05/18 07:06:21;;;;;;;3.25;1.72;;;;;;;7.91;73.28;99541.86;1664534;84;21091;-65
2022/05/18 07:08:50;;;;;;;4.90;1.80;;;;;;;7.91;73.73;99536.37;1658098;84;21033;-66
2022/05/18 07:11:18;;;;;;;3.37;2.15;;;;;;;7.84;73.39;99545.00;1642638;84;21079;-65
2022/05/18 07:13:51;;;;;;;6.55;2.15;;;;;;;7.79;74.40;99551.95;1662310;82;21499;-65
2022/05/18 07:16:23;;;;;;;2.47;1.52;;;;;;;7.71;74.94;99548.52;1651328;84;21110;-66
2022/05/18 07:18:51;;;;;;;4.42;1.98;;;;;;;7.66;75.62;99552.97;1668192;84;21153;-65
2022/05/18 07:21:18;;;;;;;3.75;1.90;;;;;;;7.63;76.11;99554.12;1677747;84;21054;-65
2022/05/18 07:23:45;;;;;;;5.10;2.20;;;;;;;7.62;76.91;99553.88;1665656;84;21104;-68
2022/05/18 07:26:14;;;;;;;12.20;3.00;;;;;;;7.65;77.29;99554.64;1656051;84;21047;-64
2022/05/18 07:28:42;;;;;;;7.20;3.02;;;;;;;7.71;77.60;99554.80;1662884;84;21099;-64
2022/05/18 07:31:09;;;;;;;5.37;2.60;;;;;;;7.76;77.84;99551.18;1660904;84;21586;-67
2022/05/18 07:33:35;;;;;;;10.32;4.15;;;;;;;7.86;78.05;99553.75;1660243;84;21105;-67
2022/05/18 07:36:03;;;;;;;10.03;4.08;;;;;;;7.93;77.97;99551.16;1663064;84;21095;-64
2022/05/18 07:38:32;;;;;;;12.45;4.65;;;;;;;8.03;78.46;99550.41;1659912;84;21091;-66
2022/05/18 07:40:59;;;;;;;10.20;4.70;;;;;;;8.15;78.55;99558.16;1662833;84;21547;-63
2022/05/18 07:43:25;;;;;;;11.57;4.35;;;;;;;8.24;78.42;99561.59;1669435;84;21220;-64
2022/05/18 07:45:55;;;;;;;12.88;5.35;;;;;;;8.30;78.56;99559.55;1657110;84;21098;-63
2022/05/18 07:48:22;;;;;;;12.30;4.45;;;;;;;8.31;78.47;99561.19;1665374;84;21076;-64
2022/05/18 07:50:49;;;;;;;6.42;4.03;;;;;;;8.30;78.55;99565.04;1656902;84;21082;-65
2022/05/18 07:53:16;;;;;;;10.50;3.98;;;;;;;8.27;78.74;99556.87;1654693;84;21161;-67
2022/05/18 07:55:43;;;;;;;10.32;4.30;;;;;;;8.32;78.60;99576.53;1645342;85;21261;-65
2022/05/18 07:58:13;;;;;;;11.48;4.80;;;;;;;8.31;78.77;99570.80;1661297;84;21205;-67
2022/05/18 08:00:40;;;;;;;8.50;3.75;;;;;;;8.27;79.03;99570.02;1671002;83;21018;-65
2022/05/18 08:03:10;;;;;;;9.00;4.35;;;;;;;8.31;79.39;99570.22;1665509;84;21102;-65
2022/05/18 08:05:37;;;;;;;10.50;4.65;;;;;;;8.32;79.47;99574.61;1670463;84;21040;-65
2022/05/18 08:08:12;;;;;;;9.10;4.08;;;;;;;8.30;79.79;99572.73;1672356;84;21583;-67
2022/05/18 08:16:10;;;;;;;10.08;4.87;;;;;;;8.22;80.92;99576.17;1652982;84;21084;-67
2022/05/18 08:18:37;;;;;;;14.38;5.25;;;;;;;8.27;81.31;99572.76;1667404;84;21076;-68
2022/05/18 08:21:03;;;;;;;11.35;5.15;;;;;;;8.30;81.62;99576.84;1651054;83;22057;-68
2022/05/18 08:23:32;;;;;;;12.73;4.70;;;;;;;8.31;81.98;99577.66;1644447;84;21674;-66
2022/05/18 08:25:59;;;;;;;13.43;4.00;;;;;;;8.39;82.52;99579.70;1648585;84;21074;-64
2022/05/18 08:28:26;;;;;;;11.88;4.55;;;;;;;8.40;82.73;99586.27;1658851;83;21043;-65
2022/05/18 08:30:54;;;;;;;13.05;5.17;;;;;;;8.39;82.62;99586.57;1658733;84;21037;-63
2022/05/18 08:33:20;;;;;;;9.68;3.90;;;;;;;8.33;84.10;99587.77;1652901;83;21528;-64
2022/05/18 08:35:48;;;;;;;8.90;3.98;;;;;;;8.30;84.25;99589.75;1679972;84;21069;-65
2022/05/18 08:38:15;;;;;;;7.03;3.72;;;;;;;8.32;84.04;99588.34;1668669;83;21048;-64
2022/05/18 08:41:08;;;;;;;6.65;3.27;;;;;;;8.35;84.31;99588.28;1666876;84;21057;-66
2022/05/18 08:43:38;;;;;;;7.27;2.47;;;;;;;8.37;84.71;99595.11;1652051;85;21517;-67
2022/05/18 08:46:24;;;;;;;8.80;2.92;;;;;;;8.32;84.92;99593.01;1667227;84;21777;-64
2022/05/18 08:49:06;;;;;;;5.08;1.90;;;;;;;8.28;85.24;99593.62;1656587;83;21033;-64
2022/05/18 08:52:29;;;;;;;6.03;2.50;;;;;;;8.20;85.71;99588.83;1649407;84;21030;-67
2022/05/18 08:55:30;;;;;;;4.90;1.80;;;;;;;8.21;86.43;99593.20;1661106;83;21620;-64
2022/05/18 08:57:59;;;;;;;1.98;1.27;;;;;;;8.23;86.84;99587.40;1669353;84;21291;-65
2022/05/18 09:00:43;;;;;;;6.85;1.62;;;;;;;8.31;87.20;99586.70;1650653;85;21174;-66
2022/05/18 09:03:15;;;;;;;3.72;1.50;;;;;;;8.39;87.56;99589.31;1645609;85;21125;-67
2022/05/18 09:05:50;;;;;;;2.35;1.50;;;;;;;8.42;87.37;99592.82;1644080;85;21135;-66
2022/05/18 09:08:24;;;;;;;6.60;1.72;;;;;;;8.43;87.59;99589.53;1633110;85;21137;-64
2022/05/18 09:10:58;;;;;;;3.15;1.42;;;;;;;8.39;87.53;99593.44;1633468;84;21107;-65
2022/05/18 09:13:25;;;;;;;2.22;1.17;;;;;;;8.34;87.80;99591.58;1667833;84;21343;-64
2022/05/18 09:16:11;;;;;;;1.22;1.05;;;;;;;8.30;88.20;99593.31;1617974;86;21097;-65
2022/05/18 09:19:01;;;;;;;0.95;0.90;;;;;;;8.25;88.32;99595.60;1664803;84;21073;-64
2022/05/18 09:21:51;;;;;;;1.17;0.90;;;;;;;8.22;88.49;99593.44;1641110;85;21503;-66
2022/05/18 09:25:10;;;;;;;2.30;1.00;;;;;;;8.24;88.98;99600.81;1669617;84;21539;-63
2022/05/18 09:27:55;;;;;;;1.60;0.98;;;;;;;8.23;89.13;99599.75;1668862;84;22175;-63
2022/05/18 09:30:58;;;;;;;1.75;1.22;;;;;;;8.21;89.86;99604.72;1653352;84;21096;-64
2022/05/18 09:33:53;;;;;;;2.47;1.17;;;;;;;8.08;89.78;99606.33;1632311;85;21027;-64
2022/05/18 09:36:55;;;;;;;1.65;1.05;;;;;;;8.00;90.66;99607.27;1644393;84;21038;-63
2022/05/18 09:39:25;;;;;;;2.25;0.75;;;;;;;7.96;91.35;99616.41;1673025;84;21028;-64
2022/05/18 09:42:14;;;;;;;6.80;1.50;;;;;;;7.89;92.68;99617.62;1654558;84;21110;-63
2022/05/18 09:45:03;;;;;;;2.17;1.35;;;;;;;7.89;93.73;99612.13;1657811;84;21105;-64
2022/05/18 09:47:37;;;;;;;1.25;1.15;;;;;;;7.93;93.70;99617.02;1660868;84;21103;-66
2022/05/18 09:50:07;;;;;;;1.87;1.17;;;;;;;7.87;96.14;99621.21;1654725;84;21039;-63
2022/05/18 09:52:37;;;;;;;2.75;1.10;;;;;;;7.85;97.68;99624.80;1664651;84;21519;-62
2022/05/18 09:58:26;;;;;;;2.77;1.40;;;;;;;7.97;96.18;99622.97;1692722;81;21066;-70
2022/05/18 10:07:27;;;;;;;2.83;1.67;;;;;;;8.04;95.62;99637.67;1683433;83;21123;-68
2022/05/18 10:09:06;;;;;;;4.75;2.00;;;;;;;8.06;95.58;99640.11;1745168;80;21088;-66
2022/05/18 10:11:34;;;;;;;3.98;2.12;;;;;;;8.10;95.49;99648.02;1740367;80;21526;-66
2022/05/18 10:14:18;;;;;;;2.85;2.05;;;;;;;8.11;95.29;99646.34;1732266;81;21060;-72
2022/05/18 10:17:06;;;;;;;3.37;2.08;;;;;;;8.10;95.31;99656.25;1733109;81;21094;-68
2022/05/18 10:19:47;;;;;;;4.75;2.65;;;;;;;8.09;95.32;99655.98;1698224;82;21017;-72
2022/05/18 10:22:21;;;;;;;2.87;2.47;;;;;;;8.10;95.19;99656.25;1710867;81;21133;-71
2022/05/18 10:25:08;;;;;;;4.60;2.50;;;;;;;8.04;95.13;99659.08;1733909;81;20980;-70
2022/05/18 10:27:38;;;;;;;5.85;3.25;;;;;;;8.00;95.23;99663.52;1735009;80;21606;-72
2022/05/18 10:30:16;;;;;;;4.15;3.37;;;;;;;7.98;95.41;99669.06;1737567;81;21020;-71
2022/05/18 10:33:03;;;;;;;5.10;3.17;;;;;;;7.99;95.48;99670.14;1728307;80;21017;-73
2022/05/18 10:35:47;;;;;;;7.62;3.92;;;;;;;8.04;95.79;99671.98;1732337;81;21101;-72
2022/05/18 10:38:23;;;;;;;6.28;3.87;;;;;;;8.10;95.84;99676.84;1731812;81;21438;-72
2022/05/18 10:41:07;;;;;;;6.95;4.50;;;;;;;8.12;95.76;99671.88;1728781;81;21521;-72
2022/05/18 10:43:45;;;;;;;;;;;;;;;8.12;96.12;99679.53;1740054;81;21547;-72
2022/05/18 10:46:31;;;;;;;9.25;4.12;;;;;;;8.17;95.87;99680.02;1734093;81;20171;-71
2022/05/18 10:49:04;;;;;;;8.10;3.72;;;;;;;8.16;95.53;99678.38;1730033;81;21057;-74
2022/05/18 10:51:43;;;;;;;5.33;3.80;;;;;;;8.16;95.71;99676.45;1727428;82;21021;-74
2022/05/18 10:54:33;;;;;;;5.08;3.45;;;;;;;8.18;94.99;99683.02;1706690;82;21071;-72
2022/05/18 10:57:16;;;;;;;8.18;3.55;;;;;;;8.21;95.18;99691.19;1723575;82;21091;-72
2022/05/18 10:59:53;;;;;;;6.85;3.85;;;;;;;8.22;94.72;99692.84;1679426;83;21001;-71
2022/05/18 11:02:45;;;;;;;7.78;4.20;;;;;;;8.20;94.64;99688.20;1672614;84;21456;-73
2022/05/18 11:05:31;;;;;;;4.87;3.87;;;;;;;8.21;94.76;99682.95;1655125;84;20998;-73
2022/05/18 11:08:01;;;;;;;5.97;4.10;;;;;;;8.28;95.00;99684.77;1671769;83;21030;-71
2022/05/18 11:10:34;;;;;;;6.33;3.62;;;;;;;8.33;94.58;99686.05;1727723;82;21104;-69
2022/05/18 11:13:12;;;;;;;6.72;4.25;;;;;;;8.35;94.45;99690.69;1728694;81;21597;-68
2022/05/18 11:15:46;;;;;;;9.10;4.60;;;;;;;8.37;94.38;99694.51;1732292;82;21251;-72
2022/05/18 11:18:40;;;;;;;7.28;4.85;;;;;;;8.37;94.05;99691.77;1727271;82;21065;-69
2022/05/18 11:21:42;;;;;;;12.18;4.50;;;;;;;8.38;93.71;99698.32;1724042;82;21054;-71
2022/05/18 11:24:24;;;;;;;6.10;4.53;;;;;;;8.40;93.74;99698.02;1726402;82;20997;-67
2022/05/18 11:27:18;;;;;;;7.67;5.17;;;;;;;8.43;93.56;99702.91;1723717;82;21034;-72
2022/05/18 11:30:08;;;;;;;10.40;4.22;;;;;;;8.46;93.11;99708.37;1645268;82;21535;-70
2022/05/18 11:32:52;;;;;;;8.28;4.12;;;;;;;8.48;93.03;99707.48;1725560;82;21056;-72
2022/05/18 11:36:05;;;;;;;6.08;4.03;;;;;;;8.55;93.25;99716.19;1726140;82;21038;-71
2022/05/18 11:39:06;;;;;;;6.92;3.87;;;;;;;8.56;92.62;99719.76;1728168;81;21024;-71
2022/05/18 11:42:09;;;;;;;5.62;3.80;;;;;;;8.53;92.14;99723.33;1682220;80;21585;-74
2022/05/18 11:45:00;;;;;;;5.30;3.55;;;;;;;8.53;92.07;99735.69;1720099;80;21794;-71
2022/05/18 11:47:58;;;;;;;4.70;4.05;;;;;;;8.53;91.35;99721.95;1715299;81;21071;-73
2022/05/18 11:50:36;;;;;;;10.53;4.03;;;;;;;8.49;90.68;99731.10;1728148;82;21164;-74
2022/05/18 11:53:40;;;;;;;4.75;3.80;;;;;;;8.49;91.17;99730.55;1724689;82;21463;-70
2022/05/18 11:56:14;;;;;;;;;;;;;;;8.51;91.51;99733.80;1731193;81;21063;-72
2022/05/18 11:59:10;;;;;;;8.10;4.10;;;;;;;8.52;91.50;99749.17;1727504;81;21146;-71
2022/05/18 12:01:36;;;;;;;5.65;3.85;;;;;;;8.50;91.67;99747.28;1725346;81;21072;-68
2022/05/18 12:04:27;;;;;;;8.10;3.37;;;;;;;8.46;91.54;99746.81;1727784;81;21053;-72
2022/05/18 12:07:14;;;;;;;4.33;3.42;;;;;;;8.46;91.70;99750.35;1725543;82;20999;-69
2022/05/18 12:10:04;;;;;;;6.85;3.95;;;;;;;8.51;91.94;99753.02;1688721;82;21394;-70
2022/05/18 12:13:00;;;;;;;7.03;4.75;;;;;;;8.56;92.07;99746.67;1722418;82;21006;-66
2022/05/18 12:15:44;;;;;;;5.65;3.62;;;;;;;8.64;92.50;99750.09;1730748;82;21056;-69
2022/05/18 12:18:18;;;;;;;4.35;3.40;;;;;;;8.73;92.43;99750.23;1700598;82;22069;-67
2022/05/18 12:20:56;;;;;;;5.10;3.42;;;;;;;8.78;92.00;99753.98;1722917;82;21055;-69